FredonyerEastRWIS Atmospheric Data: 06/12/2019 Summary  Detailed Graphs  Station List

  Temperature     Wind Precipitation Visibility
Timestamp Air Wet
Bulb
Dew-
point
24-hr
Max
24-hr
Min
Relative
Humidity
Atmospheric
Pressure
Avg
Speed
Avg
Dir
Spot
Speed
Spot
Dir
Max
Speed
Max
Dir
  Rate Situation Start End 1 hr 3 hr 6 hr 12 hr 24 hr   Situation
Date Time °F °F °F °F °F % in Hg mph ° mph ° mph ° Y/N in/hr text Date Time Date Time in in in in in mi text
06/12/2019 12:09 AM 57.92 52.70 48.38 86.18 44.96 70.0 Not Reported 1.34 NW 0.00 NW 1.79 N No 0.000 No Precipitation 06/02/2019 09:26 PM 06/02/2019 09:31 PM 0.000 0.000 0.000 0.000 0.000 Not Reported Not Reported
06/12/2019 12:25 AM 57.02 51.98 47.84 86.18 44.96 71.0 Not Reported 1.12 NW 0.89 NW 1.57 NW No 0.000 No Precipitation 06/02/2019 09:26 PM 06/02/2019 09:31 PM 0.000 0.000 0.000 0.000 0.000 Not Reported Not Reported
06/12/2019 12:39 AM 56.84 51.80 48.20 86.18 44.96 72.0 Not Reported 1.12 N 0.89 N 1.57 NW No 0.000 No Precipitation 06/02/2019 09:26 PM 06/02/2019 09:31 PM 0.000 0.000 0.000 0.000 0.000 Not Reported Not Reported
06/12/2019 12:53 AM 56.66 52.16 48.38 86.18 44.96 73.0 Not Reported 1.12 NW 0.22 NE 2.01 NW No 0.000 No Precipitation 06/02/2019 09:26 PM 06/02/2019 09:31 PM 0.000 0.000 0.000 0.000 0.000 Not Reported Not Reported
06/12/2019 01:09 AM 55.76 51.62 47.66 86.18 44.96 73.0 Not Reported 1.12 NW 0.89 W 2.91 NW No 0.000 No Precipitation 06/02/2019 09:26 PM 06/02/2019 09:31 PM 0.000 0.000 0.000 0.000 0.000 Not Reported Not Reported
06/12/2019 01:23 AM 55.22 51.26 47.84 86.18 44.96 76.0 Not Reported 0.22 W 0.00 SW 1.57 W No 0.000 No Precipitation 06/02/2019 09:26 PM 06/02/2019 09:31 PM 0.000 0.000 0.000 0.000 0.000 Not Reported Not Reported
06/12/2019 01:38 AM 54.32 50.54 47.48 86.18 44.96 77.0 Not Reported 0.89 NW 1.34 NW 1.12 W No 0.000 No Precipitation 06/02/2019 09:26 PM 06/02/2019 09:31 PM 0.000 0.000 0.000 0.000 0.000 Not Reported Not Reported
06/12/2019 01:53 AM 53.96 50.18 47.12 86.18 44.96 77.0 Not Reported 1.79 NW 1.34 NW 1.79 NW No 0.000 No Precipitation 06/02/2019 09:26 PM 06/02/2019 09:31 PM 0.000 0.000 0.000 0.000 0.000 Not Reported Not Reported
06/12/2019 02:08 AM 53.60 50.00 46.76 86.18 44.96 77.0 Not Reported 1.34 NW 1.12 NW 2.24 NW No 0.000 No Precipitation 06/02/2019 09:26 PM 06/02/2019 09:31 PM 0.000 0.000 0.000 0.000 0.000 Not Reported Not Reported
06/12/2019 02:23 AM 53.24 49.64 46.58 86.18 44.96 77.0 Not Reported 1.34 NW 1.79 NW 2.01 NW No 0.000 No Precipitation 06/02/2019 09:26 PM 06/02/2019 09:31 PM 0.000 0.000 0.000 0.000 0.000 Not Reported Not Reported
06/12/2019 02:38 AM 52.88 49.28 46.04 86.18 44.96 77.0 Not Reported 1.12 NW 1.79 NW 2.01 NW No 0.000 No Precipitation 06/02/2019 09:26 PM 06/02/2019 09:31 PM 0.000 0.000 0.000 0.000 0.000 Not Reported Not Reported
06/12/2019 02:54 AM 52.52 48.92 45.68 86.18 44.96 77.0 Not Reported 0.00 W 0.00 W 2.01 NW No 0.000 No Precipitation 06/02/2019 09:26 PM 06/02/2019 09:31 PM 0.000 0.000 0.000 0.000 0.000 Not Reported Not Reported
06/12/2019 03:12 AM 51.62 48.02 44.78 86.18 44.96 77.0 Not Reported 0.67 NW 0.45 NW 2.01 NW No 0.000 No Precipitation 06/02/2019 09:26 PM 06/02/2019 09:31 PM 0.000 0.000 0.000 0.000 0.000 Not Reported Not Reported
06/12/2019 03:23 AM 51.44 47.84 44.60 86.18 44.96 77.0 Not Reported 1.12 NW 0.00 W 1.34 NW No 0.000 No Precipitation 06/02/2019 09:26 PM 06/02/2019 09:31 PM 0.000 0.000 0.000 0.000 0.000 Not Reported Not Reported
06/12/2019 03:39 AM 51.08 47.84 44.42 86.18 44.96 77.0 Not Reported 0.00 N 0.22 S 1.57 NW No 0.000 No Precipitation 06/02/2019 09:26 PM 06/02/2019 09:31 PM 0.000 0.000 0.000 0.000 0.000 Not Reported Not Reported
06/12/2019 03:53 AM 50.72 47.48 44.42 86.18 44.96 79.0 Not Reported 0.22 NW 0.00 N 0.89 NW No 0.000 No Precipitation 06/02/2019 09:26 PM 06/02/2019 09:31 PM 0.000 0.000 0.000 0.000 0.000 Not Reported Not Reported
06/12/2019 04:08 AM 50.36 47.30 44.60 86.18 44.96 80.0 Not Reported 0.00 N 0.00 SW 0.67 N No 0.000 No Precipitation 06/02/2019 09:26 PM 06/02/2019 09:31 PM 0.000 0.000 0.000 0.000 0.000 Not Reported Not Reported
06/12/2019 04:23 AM 50.54 47.48 44.78 86.18 44.96 80.0 Not Reported 0.45 NW 0.89 NW 1.79 NW No 0.000 No Precipitation 06/02/2019 09:26 PM 06/02/2019 09:31 PM 0.000 0.000 0.000 0.000 0.000 Not Reported Not Reported
06/12/2019 04:38 AM 50.72 47.66 44.96 86.18 44.96 80.0 Not Reported 0.00 N 0.00 NW 1.12 NW No 0.000 No Precipitation 06/02/2019 09:26 PM 06/02/2019 09:31 PM 0.000 0.000 0.000 0.000 0.000 Not Reported Not Reported
06/12/2019 04:53 AM 51.26 48.02 44.96 86.18 44.96 78.0 Not Reported 0.67 SW 0.67 S 3.13 W No 0.000 No Precipitation 06/02/2019 09:26 PM 06/02/2019 09:31 PM 0.000 0.000 0.000 0.000 0.000 Not Reported Not Reported
06/12/2019 05:09 AM 51.26 48.02 44.78 86.18 44.96 78.0 Not Reported 0.67 W 0.89 NW 1.57 S No 0.000 No Precipitation 06/02/2019 09:26 PM 06/02/2019 09:31 PM 0.000 0.000 0.000 0.000 0.000 Not Reported Not Reported
06/12/2019 05:23 AM 51.44 48.02 44.96 86.18 44.96 78.0 Not Reported 0.00 NW 0.00 NW 0.67 W No 0.000 No Precipitation 06/02/2019 09:26 PM 06/02/2019 09:31 PM 0.000 0.000 0.000 0.000 0.000 Not Reported Not Reported
06/12/2019 05:38 AM 51.80 48.38 45.32 86.18 44.96 78.0 Not Reported 0.00 N 0.00 N 1.34 NW No 0.000 No Precipitation 06/02/2019 09:26 PM 06/02/2019 09:31 PM 0.000 0.000 0.000 0.000 0.000 Not Reported Not Reported
06/12/2019 05:55 AM 52.16 48.74 45.50 86.18 45.14 78.0 Not Reported 0.00 N 0.00 NW 0.89 NW No 0.000 No Precipitation 06/02/2019 09:26 PM 06/02/2019 09:31 PM 0.000 0.000 0.000 0.000 0.000 Not Reported Not Reported
06/12/2019 06:09 AM 52.34 49.10 45.86 86.18 45.50 78.0 Not Reported 0.00 N 0.00 N 0.45 E No 0.000 No Precipitation 06/02/2019 09:26 PM 06/02/2019 09:31 PM 0.000 0.000 0.000 0.000 0.000 Not Reported Not Reported
06/12/2019 06:23 AM 52.88 49.46 46.40 86.18 46.04 78.0 Not Reported 0.00 N 0.00 N 0.67 N No 0.000 No Precipitation 06/02/2019 09:26 PM 06/02/2019 09:31 PM 0.000 0.000 0.000 0.000 0.000 Not Reported Not Reported
06/12/2019 06:38 AM 53.06 49.64 46.76 86.18 46.94 79.0 Not Reported 0.00 N 0.00 N 0.22 S No 0.000 No Precipitation 06/02/2019 09:26 PM 06/02/2019 09:31 PM 0.000 0.000 0.000 0.000 0.000 Not Reported Not Reported
06/12/2019 06:53 AM 53.42 50.18 47.30 86.18 48.74 79.0 Not Reported 0.00 N 0.00 NW 0.00 N No 0.000 No Precipitation 06/02/2019 09:26 PM 06/02/2019 09:31 PM 0.000 0.000 0.000 0.000 0.000 Not Reported Not Reported
06/12/2019 07:10 AM 54.14 50.90 48.20 86.18 50.36 79.0 Not Reported 0.00 N 0.45 W 0.00 NW No 0.000 No Precipitation 06/02/2019 09:26 PM 06/02/2019 09:31 PM 0.000 0.000 0.000 0.000 0.000 Not Reported Not Reported
06/12/2019 07:23 AM 56.12 52.16 49.10 86.18 50.36 77.0 Not Reported 0.00 N 0.00 SW 0.00 W No 0.000 No Precipitation 06/02/2019 09:26 PM 06/02/2019 09:31 PM 0.000 0.000 0.000 0.000 0.000 Not Reported Not Reported
06/12/2019 07:39 AM 57.02 52.34 48.92 86.18 50.36 73.0 Not Reported 0.00 SW 0.00 S 0.00 W No 0.000 No Precipitation 06/02/2019 09:26 PM 06/02/2019 09:31 PM 0.000 0.000 0.000 0.000 0.000 Not Reported Not Reported
06/12/2019 07:53 AM 59.00 54.50 51.26 86.18 50.36 75.0 Not Reported 0.00 NW 0.67 W 0.67 NW No 0.000 No Precipitation 06/02/2019 09:26 PM 06/02/2019 09:31 PM 0.000 0.000 0.000 0.000 0.000 Not Reported Not Reported
06/12/2019 08:08 AM 60.44 54.50 50.00 86.18 50.36 68.0 Not Reported 0.00 N 0.00 NW 0.89 NW No 0.000 No Precipitation 06/02/2019 09:26 PM 06/02/2019 09:31 PM 0.000 0.000 0.000 0.000 0.000 Not Reported Not Reported
06/12/2019 08:23 AM 61.34 55.40 51.26 86.18 50.36 69.0 Not Reported 0.45 S 0.89 SW 0.67 S No 0.000 No Precipitation 06/02/2019 09:26 PM 06/02/2019 09:31 PM 0.000 0.000 0.000 0.000 0.000 Not Reported Not Reported
06/12/2019 08:38 AM 63.14 54.86 48.56 86.18 50.36 58.0 Not Reported 0.00 N 0.00 W 1.34 S No 0.000 No Precipitation 06/02/2019 09:26 PM 06/02/2019 09:31 PM 0.000 0.000 0.000 0.000 0.000 Not Reported Not Reported
06/12/2019 08:53 AM 64.76 54.86 46.94 86.18 50.36 52.0 Not Reported 0.00 E 0.00 NE 1.57 S No 0.000 No Precipitation 06/02/2019 09:26 PM 06/02/2019 09:31 PM 0.000 0.000 0.000 0.000 0.000 Not Reported Not Reported
06/12/2019 09:08 AM 64.94 57.20 51.62 86.18 50.36 62.0 Not Reported 0.22 S 0.00 S 0.89 S No 0.000 No Precipitation 06/02/2019 09:26 PM 06/02/2019 09:31 PM 0.000 0.000 0.000 0.000 0.000 Not Reported Not Reported
06/12/2019 09:23 AM 67.10 56.30 48.20 86.18 50.36 50.0 Not Reported 1.12 S 1.57 SE 1.12 S No 0.000 No Precipitation 06/02/2019 09:26 PM 06/02/2019 09:31 PM 0.000 0.000 0.000 0.000 0.000 Not Reported Not Reported
06/12/2019 09:38 AM 68.54 56.66 47.48 86.18 50.36 47.0 Not Reported 2.24 SE 1.57 S 1.79 SE No 0.000 No Precipitation 06/02/2019 09:26 PM 06/02/2019 09:31 PM 0.000 0.000 0.000 0.000 0.000 Not Reported Not Reported
06/12/2019 09:53 AM 71.24 57.20 46.40 86.18 50.36 41.0 Not Reported 0.89 N 0.22 NE 1.34 E No 0.000 No Precipitation 06/02/2019 09:26 PM 06/02/2019 09:31 PM 0.000 0.000 0.000 0.000 0.000 Not Reported Not Reported
06/12/2019 10:11 AM 71.96 57.20 45.50 86.18 50.36 38.0 Not Reported 1.34 SE 0.45 S 2.46 SE No 0.000 No Precipitation 06/02/2019 09:26 PM 06/02/2019 09:31 PM 0.000 0.000 0.000 0.000 0.000 Not Reported Not Reported
06/12/2019 10:23 AM 73.22 55.58 40.10 86.18 50.36 30.0 Not Reported 1.34 SE 1.34 SE 2.24 S No 0.000 No Precipitation 06/02/2019 09:26 PM 06/02/2019 09:31 PM 0.000 0.000 0.000 0.000 0.000 Not Reported Not Reported
06/12/2019 10:41 AM 75.38 56.66 38.84 86.18 50.36 26.0 Not Reported 2.01 SE 1.79 SE 2.91 SE No 0.000 No Precipitation 06/02/2019 09:26 PM 06/02/2019 09:31 PM 0.000 0.000 0.000 0.000 0.000 Not Reported Not Reported
06/12/2019 10:54 AM 74.12 55.04 37.22 86.18 50.36 26.0 Not Reported 2.46 S 2.91 SW 3.13 S No 0.000 No Precipitation 06/02/2019 09:26 PM 06/02/2019 09:31 PM 0.000 0.000 0.000 0.000 0.000 Not Reported Not Reported
06/12/2019 11:08 AM 76.64 55.58 35.96 86.18 50.36 22.0 Not Reported 1.34 SE 2.24 SE 2.91 SW No 0.000 No Precipitation 06/02/2019 09:26 PM 06/02/2019 09:31 PM 0.000 0.000 0.000 0.000 0.000 Not Reported Not Reported
06/12/2019 11:23 AM 76.64 57.56 41.54 86.18 50.36 28.0 Not Reported 1.79 SE 3.80 SE 3.80 S No 0.000 No Precipitation 06/02/2019 09:26 PM 06/02/2019 09:31 PM 0.000 0.000 0.000 0.000 0.000 Not Reported Not Reported
06/12/2019 11:38 AM 76.46 56.48 38.84 86.18 50.36 25.0 Not Reported 3.80 S 2.46 S 5.59 SE No 0.000 No Precipitation 06/02/2019 09:26 PM 06/02/2019 09:31 PM 0.000 0.000 0.000 0.000 0.000 Not Reported Not Reported
06/12/2019 11:54 AM 75.74 55.94 39.38 86.18 50.36 25.0 Not Reported 4.03 W 0.67 SW 6.71 SW No 0.000 No Precipitation 06/02/2019 09:26 PM 06/02/2019 09:31 PM 0.000 0.000 0.000 0.000 0.000 Not Reported Not Reported
06/12/2019 12:08 PM 75.20 55.76 38.30 86.18 50.36 26.0 Not Reported 3.36 SW 3.36 SW 6.49 NW No 0.000 No Precipitation 06/02/2019 09:26 PM 06/02/2019 09:31 PM 0.000 0.000 0.000 0.000 0.000 Not Reported Not Reported
06/12/2019 12:23 PM 75.38 54.50 34.16 86.18 50.36 22.0 Not Reported 4.25 SW 3.80 S 7.16 NW No 0.000 No Precipitation 06/02/2019 09:26 PM 06/02/2019 09:31 PM 0.000 0.000 0.000 0.000 0.000 Not Reported Not Reported
06/12/2019 12:38 PM 75.74 55.40 36.68 86.18 50.36 24.0 Not Reported 2.91 W 3.13 SW 7.16 SW No 0.000 No Precipitation 06/02/2019 09:26 PM 06/02/2019 09:31 PM 0.000 0.000 0.000 0.000 0.000 Not Reported Not Reported
06/12/2019 12:53 PM 75.38 55.58 37.76 86.18 50.36 25.0 Not Reported 4.47 SW 3.58 NW 6.49 SW No 0.000 No Precipitation 06/02/2019 09:26 PM 06/02/2019 09:31 PM 0.000 0.000 0.000 0.000 0.000 Not Reported Not Reported
06/12/2019 01:10 PM 75.74 55.58 37.40 86.18 50.36 24.0 Not Reported 3.80 W 4.25 NW 4.92 W No 0.000 No Precipitation 06/02/2019 09:26 PM 06/02/2019 09:31 PM 0.000 0.000 0.000 0.000 0.000 Not Reported Not Reported
06/12/2019 01:23 PM 75.38 56.30 39.92 86.18 50.36 27.0 Not Reported 2.01 NW 7.83 NW 5.59 NW No 0.000 No Precipitation 06/02/2019 09:26 PM 06/02/2019 09:31 PM 0.000 0.000 0.000 0.000 0.000 Not Reported Not Reported
06/12/2019 01:38 PM 75.20 57.02 41.90 86.18 50.36 30.0 Not Reported 2.24 S 2.24 S 7.83 NW No 0.000 No Precipitation 06/02/2019 09:26 PM 06/02/2019 09:31 PM 0.000 0.000 0.000 0.000 0.000 Not Reported Not Reported
06/12/2019 01:54 PM 77.00 55.58 36.50 86.18 50.36 23.0 Not Reported 2.46 SW 3.58 SW 5.82 W No 0.000 No Precipitation 06/02/2019 09:26 PM 06/02/2019 09:31 PM 0.000 0.000 0.000 0.000 0.000 Not Reported Not Reported
06/12/2019 02:08 PM 76.82 56.12 37.22 86.18 50.36 23.0 Not Reported 3.80 SW 3.36 SE 5.37 SW No 0.000 No Precipitation 06/02/2019 09:26 PM 06/02/2019 09:31 PM 0.000 0.000 0.000 0.000 0.000 Not Reported Not Reported
06/12/2019 02:23 PM 80.42 57.74 37.94 86.18 50.36 21.0 Not Reported 3.58 E 3.58 W 4.92 SE No 0.000 No Precipitation 06/02/2019 09:26 PM 06/02/2019 09:31 PM 0.000 0.000 0.000 0.000 0.000 Not Reported Not Reported
06/12/2019 02:38 PM 82.04 57.92 36.68 86.18 50.36 19.0 Not Reported 2.01 S 4.47 W 5.82 SE No 0.000 No Precipitation 06/02/2019 09:26 PM 06/02/2019 09:31 PM 0.000 0.000 0.000 0.000 0.000 Not Reported Not Reported
06/12/2019 02:54 PM 79.70 57.02 36.86 86.18 50.36 21.0 Not Reported 5.14 W 3.80 SE 7.61 W No 0.000 No Precipitation 06/02/2019 09:26 PM 06/02/2019 09:31 PM 0.000 0.000 0.000 0.000 0.000 Not Reported Not Reported
06/12/2019 03:09 PM 79.34 57.02 37.40 86.18 50.36 22.0 Not Reported 2.91 SW 4.70 S 6.93 NW No 0.000 No Precipitation 06/02/2019 09:26 PM 06/02/2019 09:31 PM 0.000 0.000 0.000 0.000 0.000 Not Reported Not Reported
06/12/2019 03:23 PM 78.80 57.38 39.02 86.18 50.36 23.0 Not Reported 2.91 SW 0.67 SE 6.71 NW No 0.000 No Precipitation 06/02/2019 09:26 PM 06/02/2019 09:31 PM 0.000 0.000 0.000 0.000 0.000 Not Reported Not Reported
06/12/2019 03:39 PM 77.54 57.20 39.02 86.18 50.36 25.0 Not Reported 3.13 W 0.89 SW 5.37 SE No 0.000 No Precipitation 06/02/2019 09:26 PM 06/02/2019 09:31 PM 0.000 0.000 0.000 0.000 0.000 Not Reported Not Reported
06/12/2019 03:55 PM 77.18 57.38 40.82 86.18 50.36 27.0 Not Reported 2.91 W 4.25 S 6.26 SW No 0.000 No Precipitation 06/02/2019 09:26 PM 06/02/2019 09:31 PM 0.000 0.000 0.000 0.000 0.000 Not Reported Not Reported
06/12/2019 04:08 PM 76.64 57.56 41.54 86.18 50.36 28.0 Not Reported 3.36 S 2.46 SE 5.59 S No 0.000 No Precipitation 06/02/2019 09:26 PM 06/02/2019 09:31 PM 0.000 0.000 0.000 0.000 0.000 Not Reported Not Reported
06/12/2019 04:23 PM 76.64 57.56 41.72 86.18 50.36 28.0 Not Reported 1.79 SE 2.24 SE 2.68 SW No 0.000 No Precipitation 06/02/2019 09:26 PM 06/02/2019 09:31 PM 0.000 0.000 0.000 0.000 0.000 Not Reported Not Reported
06/12/2019 04:38 PM 77.72 58.82 44.06 85.64 50.36 30.0 Not Reported 1.57 S 2.68 SW 2.91 S No 0.000 No Precipitation 06/02/2019 09:26 PM 06/02/2019 09:31 PM 0.000 0.000 0.000 0.000 0.000 Not Reported Not Reported
06/12/2019 04:53 PM 77.00 58.82 44.78 85.28 50.36 31.0 Not Reported 2.68 SE 3.58 SW 3.13 S No 0.000 No Precipitation 06/02/2019 09:26 PM 06/02/2019 09:31 PM 0.000 0.000 0.000 0.000 0.000 Not Reported Not Reported
06/12/2019 05:08 PM 75.92 57.56 42.80 85.28 50.36 30.0 Not Reported 3.13 SW 2.01 SW 3.58 W No 0.000 No Precipitation 06/02/2019 09:26 PM 06/02/2019 09:31 PM 0.000 0.000 0.000 0.000 0.000 Not Reported Not Reported
06/12/2019 05:23 PM 75.92 58.28 44.42 85.28 50.36 32.0 Not Reported 2.01 W 2.24 S 6.49 S No 0.000 No Precipitation 06/02/2019 09:26 PM 06/02/2019 09:31 PM 0.000 0.000 0.000 0.000 0.000 Not Reported Not Reported
06/12/2019 05:39 PM 75.92 58.10 43.88 85.28 50.36 31.0 Not Reported 1.57 SW 2.91 W 5.37 S No 0.000 No Precipitation 06/02/2019 09:26 PM 06/02/2019 09:31 PM 0.000 0.000 0.000 0.000 0.000 Not Reported Not Reported
06/12/2019 05:53 PM 75.74 57.92 43.88 84.92 50.36 32.0 Not Reported 4.25 SW 0.67 SW 5.14 SW No 0.000 No Precipitation 06/02/2019 09:26 PM 06/02/2019 09:31 PM 0.000 0.000 0.000 0.000 0.000 Not Reported Not Reported
06/12/2019 06:08 PM 74.84 58.46 46.04 84.74 50.36 36.0 Not Reported 2.46 W 1.79 W 6.71 SW No 0.000 No Precipitation 06/02/2019 09:26 PM 06/02/2019 09:31 PM 0.000 0.000 0.000 0.000 0.000 Not Reported Not Reported
06/12/2019 06:23 PM 75.02 58.10 45.14 83.84 50.36 34.0 Not Reported 1.34 SW 4.70 SW 2.24 W No 0.000 No Precipitation 06/02/2019 09:26 PM 06/02/2019 09:31 PM 0.000 0.000 0.000 0.000 0.000 Not Reported Not Reported
06/12/2019 06:38 PM 75.02 58.64 46.22 82.58 50.36 35.0 Not Reported 2.24 W 1.79 SW 4.70 SW No 0.000 No Precipitation 06/02/2019 09:26 PM 06/02/2019 09:31 PM 0.000 0.000 0.000 0.000 0.000 Not Reported Not Reported
06/12/2019 06:54 PM 74.84 60.26 50.00 82.04 50.36 41.0 Not Reported 2.68 W 2.01 S 3.80 S No 0.000 No Precipitation 06/02/2019 09:26 PM 06/02/2019 09:31 PM 0.000 0.000 0.000 0.000 0.000 Not Reported Not Reported
06/12/2019 07:08 PM 69.98 58.10 49.46 82.04 50.36 47.0 Not Reported 2.68 W 2.46 W 3.58 W No 0.000 No Precipitation 06/02/2019 09:26 PM 06/02/2019 09:31 PM 0.000 0.000 0.000 0.000 0.000 Not Reported Not Reported
06/12/2019 07:25 PM 67.28 58.28 51.98 82.04 50.36 58.0 Not Reported 3.13 NW 2.24 NW 3.58 NW No 0.000 No Precipitation 06/02/2019 09:26 PM 06/02/2019 09:31 PM 0.000 0.000 0.000 0.000 0.000 Not Reported Not Reported
06/12/2019 07:38 PM 66.38 57.74 51.62 82.04 50.36 58.0 Not Reported 2.46 W 2.46 W 3.58 W No 0.000 No Precipitation 06/02/2019 09:26 PM 06/02/2019 09:31 PM 0.000 0.000 0.000 0.000 0.000 Not Reported Not Reported
06/12/2019 07:54 PM 66.74 56.48 50.36 82.04 50.36 55.0 Not Reported 3.13 W 3.58 W 4.70 SW No 0.000 No Precipitation 06/02/2019 09:26 PM 06/02/2019 09:31 PM 0.000 0.000 0.000 0.000 0.000 Not Reported Not Reported
06/12/2019 08:08 PM 64.76 56.48 50.54 82.04 50.36 60.0 Not Reported 1.57 SW 1.34 SW 4.25 W No 0.000 No Precipitation 06/02/2019 09:26 PM 06/02/2019 09:31 PM 0.000 0.000 0.000 0.000 0.000 Not Reported Not Reported
06/12/2019 08:25 PM 63.50 55.76 50.00 82.04 50.36 61.0 Not Reported 2.01 W 1.57 W 2.91 W No 0.000 No Precipitation 06/02/2019 09:26 PM 06/02/2019 09:31 PM 0.000 0.000 0.000 0.000 0.000 Not Reported Not Reported
06/12/2019 08:38 PM 61.70 55.04 50.18 82.04 50.36 65.0 Not Reported 0.45 SW 0.00 S 2.91 W No 0.000 No Precipitation 06/02/2019 09:26 PM 06/02/2019 09:31 PM 0.000 0.000 0.000 0.000 0.000 Not Reported Not Reported
06/12/2019 08:53 PM 59.90 54.32 50.00 82.04 50.36 69.0 Not Reported 0.89 N 0.67 N 1.79 E No 0.000 No Precipitation 06/02/2019 09:26 PM 06/02/2019 09:31 PM 0.000 0.000 0.000 0.000 0.000 Not Reported Not Reported
06/12/2019 09:10 PM 60.62 53.96 48.74 82.04 50.36 64.0 Not Reported 3.13 W 3.80 W 3.80 W No 0.000 No Precipitation 06/02/2019 09:26 PM 06/02/2019 09:31 PM 0.000 0.000 0.000 0.000 0.000 Not Reported Not Reported
06/12/2019 09:25 PM 60.80 53.78 48.38 82.04 50.36 63.0 Not Reported 1.57 W 0.89 W 3.58 W No 0.000 No Precipitation 06/02/2019 09:26 PM 06/02/2019 09:31 PM 0.000 0.000 0.000 0.000 0.000 Not Reported Not Reported
06/12/2019 09:39 PM 60.44 53.60 48.20 82.04 50.36 64.0 Not Reported 2.01 W 1.57 W 3.13 W No 0.000 No Precipitation 06/02/2019 09:26 PM 06/02/2019 09:31 PM 0.000 0.000 0.000 0.000 0.000 Not Reported Not Reported
06/12/2019 09:53 PM 58.46 52.88 48.20 82.04 50.36 68.0 Not Reported 0.89 W 1.12 W 2.24 W No 0.000 No Precipitation 06/02/2019 09:26 PM 06/02/2019 09:31 PM 0.000 0.000 0.000 0.000 0.000 Not Reported Not Reported
06/12/2019 10:08 PM 57.20 52.16 48.02 82.04 50.36 71.0 Not Reported 0.00 S 0.00 S 1.34 W No 0.000 No Precipitation 06/02/2019 09:26 PM 06/02/2019 09:31 PM 0.000 0.000 0.000 0.000 0.000 Not Reported Not Reported
06/12/2019 10:23 PM 56.48 51.26 46.94 82.04 50.36 70.0 Not Reported 1.12 NW 1.34 NW 1.34 NW No 0.000 No Precipitation 06/02/2019 09:26 PM 06/02/2019 09:31 PM 0.000 0.000 0.000 0.000 0.000 Not Reported Not Reported
06/12/2019 10:38 PM 55.76 50.72 46.58 82.04 50.36 71.0 Not Reported 0.89 W 1.57 NW 1.79 NW No 0.000 No Precipitation 06/02/2019 09:26 PM 06/02/2019 09:31 PM 0.000 0.000 0.000 0.000 0.000 Not Reported Not Reported
06/12/2019 10:53 PM 55.76 50.54 46.22 82.04 50.36 70.0 Not Reported 0.67 NW 0.00 N 1.79 N No 0.000 No Precipitation 06/02/2019 09:26 PM 06/02/2019 09:31 PM 0.000 0.000 0.000 0.000 0.000 Not Reported Not Reported
06/12/2019 11:09 PM 55.04 50.18 45.86 82.04 50.36 71.0 Not Reported 0.22 W 0.22 NW 2.01 NW No 0.000 No Precipitation 06/02/2019 09:26 PM 06/02/2019 09:31 PM 0.000 0.000 0.000 0.000 0.000 Not Reported Not Reported
06/12/2019 11:24 PM 54.68 50.36 46.40 82.04 50.36 73.0 Not Reported 0.45 SW 1.57 SW 1.57 W No 0.000 No Precipitation 06/02/2019 09:26 PM 06/02/2019 09:31 PM 0.000 0.000 0.000 0.000 0.000 Not Reported Not Reported
06/12/2019 11:38 PM 55.58 50.54 46.22 82.04 50.36 70.0 Not Reported 0.89 SW 0.89 SW 2.24 SW No 0.000 No Precipitation 06/02/2019 09:26 PM 06/02/2019 09:31 PM 0.000 0.000 0.000 0.000 0.000 Not Reported Not Reported
06/12/2019 11:53 PM 55.94 50.90 46.58 82.04 50.36 70.0 Not Reported 0.22 W 0.45 W 0.89 S No 0.000 No Precipitation 06/02/2019 09:26 PM 06/02/2019 09:31 PM 0.000 0.000 0.000 0.000 0.000 Not Reported Not Reported